Time;durP1;ratioP1;P1;durP2;ratioP2;P2;SDS_P1;SDS_P2;PMS_P1;PMS_P2;Temp;Humidity;BMP_temperature;BMP_pressure;BME280_temperature;BME280_humidity;BME280_pressure;Samples;Min_cycle;Max_cycle;Signal;HPM_P1;HPM_P2
2022/01/05 00:02:11;;;;;;;1.40;1.30;;;3.60;99.90;;;;;;5009995;28;20192;-58
2022/01/05 00:04:37;;;;;;;1.30;1.20;;;3.60;99.90;;;;;;5009441;28;20287;-59
2022/01/05 00:07:04;;;;;;;1.50;1.40;;;3.60;99.90;;;;;;4989128;28;20173;-59
2022/01/05 00:09:30;;;;;;;1.33;1.23;;;3.60;99.90;;;;;;5008492;28;20187;-58
2022/01/05 00:11:56;;;;;;;3.40;1.10;;;3.60;99.90;;;;;;5010630;28;20447;-59
2022/01/05 00:14:21;;;;;;;1.00;1.00;;;3.60;99.90;;;;;;5009413;28;22219;-59
2022/01/05 00:16:47;;;;;;;1.20;1.10;;;3.50;99.90;;;;;;5008739;28;20989;-59
2022/01/05 00:19:13;;;;;;;1.00;1.00;;;3.50;99.90;;;;;;5008801;28;20282;-59
2022/01/05 00:21:40;;;;;;;1.50;1.33;;;3.50;99.90;;;;;;5007631;28;20231;-58
2022/01/05 00:24:06;;;;;;;1.50;1.40;;;3.50;99.90;;;;;;4990014;28;20246;-59
2022/01/05 00:26:32;;;;;;;2.63;1.50;;;3.40;99.90;;;;;;5007344;28;20591;-58
2022/01/05 00:28:58;;;;;;;2.27;1.57;;;3.50;99.90;;;;;;5009146;28;20441;-59
2022/01/05 00:31:24;;;;;;;1.20;1.10;;;3.50;99.90;;;;;;5007338;28;20423;-59
2022/01/05 00:33:50;;;;;;;1.20;1.20;;;3.50;99.90;;;;;;5008871;28;20283;-60
2022/01/05 00:36:17;;;;;;;1.30;1.20;;;3.50;99.90;;;;;;5008168;28;20513;-59
2022/01/05 00:38:43;;;;;;;1.23;1.20;;;3.40;99.90;;;;;;5008866;28;22669;-60
2022/01/05 00:41:08;;;;;;;1.20;1.10;;;3.40;99.90;;;;;;5007118;28;20484;-59
2022/01/05 00:43:34;;;;;;;1.40;1.30;;;3.30;99.90;;;;;;5007150;28;20276;-59
2022/01/05 00:46:00;;;;;;;1.30;1.20;;;3.30;99.90;;;;;;5008248;28;20216;-58
2022/01/05 00:48:25;;;;;;;1.00;1.00;;;3.30;99.90;;;;;;5008569;28;20461;-60
2022/01/05 00:50:51;;;;;;;1.20;1.10;;;3.30;99.90;;;;;;4987945;28;20557;-60
2022/01/05 00:53:17;;;;;;;1.43;1.00;;;3.30;99.90;;;;;;5006671;28;20318;-59
2022/01/05 00:55:42;;;;;;;1.10;1.10;;;3.40;99.90;;;;;;5011192;28;20176;-58
2022/01/05 00:58:08;;;;;;;1.30;1.30;;;3.40;99.90;;;;;;4991864;28;20185;-59
2022/01/05 01:00:34;;;;;;;1.47;1.37;;;3.40;99.90;;;;;;5007966;28;20182;-58
2022/01/05 01:02:59;;;;;;;1.17;1.07;;;3.40;99.90;;;;;;5007960;28;20474;-59
2022/01/05 01:05:25;;;;;;;2.03;1.50;;;3.40;99.90;;;;;;5007775;28;20683;-58
2022/01/05 01:07:51;;;;;;;1.40;1.27;;;3.40;99.90;;;;;;5009011;28;20655;-59
2022/01/05 01:10:17;;;;;;;1.20;1.10;;;3.40;99.90;;;;;;5005925;28;20444;-59
2022/01/05 01:12:42;;;;;;;1.10;1.00;;;3.30;99.90;;;;;;5008743;28;20180;-59
2022/01/05 01:15:11;;;;;;;1.27;1.17;;;3.30;99.90;;;;;;5008848;28;20219;-59
2022/01/05 01:17:37;;;;;;;1.00;1.00;;;3.30;99.90;;;;;;5008063;28;20169;-59
2022/01/05 01:20:03;;;;;;;1.10;1.10;;;3.30;99.90;;;;;;4988721;28;20461;-59
2022/01/05 01:22:30;;;;;;;1.20;1.20;;;3.30;99.90;;;;;;5008979;28;20666;-59
2022/01/05 01:24:56;;;;;;;1.17;1.10;;;3.30;99.90;;;;;;4991055;28;20530;-60
2022/01/05 01:27:22;;;;;;;1.10;1.10;;;3.40;99.90;;;;;;5010072;28;20510;-59
2022/01/05 01:29:47;;;;;;;1.03;1.03;;;3.40;99.90;;;;;;5005444;28;20183;-60
2022/01/05 01:32:13;;;;;;;1.00;1.00;;;3.40;99.90;;;;;;5010485;28;20271;-59
2022/01/05 01:34:39;;;;;;;3.23;0.97;;;3.40;99.90;;;;;;5009427;28;20207;-58
2022/01/05 01:37:04;;;;;;;0.90;0.90;;;3.40;99.90;;;;;;5006211;28;20216;-60
2022/01/05 01:39:30;;;;;;;1.00;1.00;;;3.40;99.90;;;;;;5011965;28;20192;-59
2022/01/05 01:41:56;;;;;;;2.13;1.17;;;3.40;99.90;;;;;;5008496;28;20186;-59
2022/01/05 01:44:22;;;;;;;0.80;0.80;;;3.40;99.90;;;;;;5008564;28;20271;-59
2022/01/05 01:46:48;;;;;;;0.90;0.90;;;3.40;99.90;;;;;;5005267;28;20184;-59
2022/01/05 01:49:13;;;;;;;0.90;0.90;;;3.40;99.90;;;;;;5007552;28;20477;-59
2022/01/05 01:51:39;;;;;;;0.90;0.90;;;3.40;99.90;;;;;;5005441;28;20658;-60
2022/01/05 01:54:06;;;;;;;1.40;1.30;;;3.40;99.90;;;;;;5006007;28;20211;-59
2022/01/05 01:56:34;;;;;;;0.80;0.80;;;3.30;99.90;;;;;;5008438;28;20213;-60
2022/01/05 01:59:01;;;;;;;0.80;0.80;;;3.30;99.90;;;;;;5013022;28;20972;-60
2022/01/05 02:01:27;;;;;;;0.90;0.90;;;3.30;99.90;;;;;;5004753;28;20854;-58
2022/01/05 02:03:53;;;;;;;0.90;0.90;;;3.40;99.90;;;;;;5001772;28;20531;-59
2022/01/05 02:06:19;;;;;;;1.00;1.00;;;3.40;99.90;;;;;;5010869;28;20266;-57
2022/01/05 02:08:44;;;;;;;1.10;1.10;;;3.40;99.90;;;;;;5003412;28;20204;-59
2022/01/05 02:11:13;;;;;;;0.93;0.87;;;3.40;99.90;;;;;;5004013;28;20279;-57
2022/01/05 02:13:40;;;;;;;0.90;0.90;;;3.50;99.90;;;;;;5005177;28;20250;-59
2022/01/05 02:16:06;;;;;;;0.80;0.80;;;3.50;99.90;;;;;;5006449;28;20444;-59
2022/01/05 02:21:05;;;;;;;0.90;0.90;;;3.50;99.90;;;;;;5005126;28;20446;-59
2022/01/05 02:23:32;;;;;;;0.90;0.90;;;3.40;99.90;;;;;;5003020;28;20206;-58
2022/01/05 02:25:58;;;;;;;1.00;1.00;;;3.40;99.90;;;;;;5004064;28;20981;-59
2022/01/05 02:28:23;;;;;;;0.80;0.80;;;3.40;99.90;;;;;;5004712;28;20438;-59
2022/01/05 02:30:52;;;;;;;0.80;0.80;;;3.40;99.90;;;;;;5006827;28;20608;-60
2022/01/05 02:33:19;;;;;;;1.10;1.10;;;3.40;99.90;;;;;;4989032;28;20189;-59
2022/01/05 02:35:46;;;;;;;0.80;0.80;;;3.40;99.90;;;;;;5005128;28;20946;-59
2022/01/05 02:38:11;;;;;;;0.90;0.90;;;3.40;99.90;;;;;;5005694;28;20442;-59
2022/01/05 02:40:37;;;;;;;1.00;1.00;;;3.40;99.90;;;;;;5005085;28;20529;-59
2022/01/05 02:43:03;;;;;;;0.83;0.83;;;3.40;99.90;;;;;;5007079;28;20228;-59
2022/01/05 02:45:28;;;;;;;0.83;0.83;;;3.40;99.90;;;;;;4993630;28;20224;-59
2022/01/05 02:47:55;;;;;;;0.90;0.90;;;3.40;99.90;;;;;;5009491;28;20186;-58
2022/01/05 02:50:21;;;;;;;1.67;0.80;;;3.40;99.90;;;;;;5008353;28;20229;-59
2022/01/05 02:52:47;;;;;;;0.70;0.70;;;3.40;99.90;;;;;;5008162;28;20445;-59
2022/01/05 02:55:13;;;;;;;0.80;0.80;;;3.30;99.90;;;;;;4994562;28;20463;-58
2022/01/05 02:57:39;;;;;;;0.80;0.80;;;3.30;99.90;;;;;;5009476;28;20187;-59
2022/01/05 03:00:07;;;;;;;0.70;0.70;;;3.30;99.90;;;;;;5010663;28;20219;-59
2022/01/05 03:02:33;;;;;;;0.80;0.80;;;3.20;99.90;;;;;;5007874;28;20431;-59
2022/01/05 03:04:59;;;;;;;0.80;0.80;;;3.20;99.90;;;;;;5009864;28;20565;-59
2022/01/05 03:07:24;;;;;;;0.80;0.80;;;3.20;99.90;;;;;;4993036;28;20176;-59
2022/01/05 03:09:50;;;;;;;0.80;0.80;;;3.20;99.90;;;;;;5011881;28;20590;-60
2022/01/05 03:12:16;;;;;;;1.03;1.03;;;3.20;99.90;;;;;;5008636;28;20679;-59
2022/01/05 03:14:41;;;;;;;0.73;0.70;;;3.20;99.90;;;;;;4992565;28;20254;-60
2022/01/05 03:17:07;;;;;;;0.97;0.90;;;3.10;99.90;;;;;;5009201;28;20269;-57
2022/01/05 03:19:32;;;;;;;1.03;0.93;;;3.10;99.90;;;;;;5007710;28;20219;-60
2022/01/05 03:21:58;;;;;;;0.87;0.87;;;3.10;99.90;;;;;;5008159;28;20187;-58
2022/01/05 03:24:24;;;;;;;0.80;0.80;;;3.00;99.90;;;;;;4990856;28;20192;-60
2022/01/05 03:26:49;;;;;;;0.90;0.90;;;3.00;99.90;;;;;;5006733;28;20180;-60
2022/01/05 03:29:15;;;;;;;1.00;1.00;;;3.00;99.90;;;;;;4989401;28;20176;-59
2022/01/05 03:31:41;;;;;;;1.37;1.10;;;3.00;99.90;;;;;;5006236;28;20761;-59
2022/01/05 03:34:06;;;;;;;1.20;1.00;;;2.90;99.90;;;;;;5008509;28;20681;-60
2022/01/05 03:36:33;;;;;;;1.10;1.00;;;2.90;99.90;;;;;;5009197;28;20190;-59
2022/01/05 03:38:58;;;;;;;1.23;0.90;;;2.90;99.90;;;;;;5008746;28;20675;-60
2022/01/05 03:41:24;;;;;;;1.00;0.97;;;2.80;99.90;;;;;;5008469;28;21190;-59
2022/01/05 03:43:50;;;;;;;3.03;1.10;;;2.80;99.90;;;;;;5007305;28;20253;-59
2022/01/05 03:46:15;;;;;;;1.20;1.10;;;2.90;99.90;;;;;;5008485;28;20195;-59
2022/01/05 03:48:41;;;;;;;0.90;0.90;;;2.80;99.90;;;;;;5008258;28;20262;-59
2022/01/05 03:51:07;;;;;;;0.90;0.90;;;2.80;99.90;;;;;;5006317;28;20242;-59
2022/01/05 03:53:33;;;;;;;0.80;0.80;;;2.90;99.90;;;;;;4990212;28;20619;-59
2022/01/05 03:55:58;;;;;;;0.87;0.87;;;2.80;99.90;;;;;;5008376;28;20426;-60
2022/01/05 03:58:24;;;;;;;0.80;0.80;;;2.80;99.90;;;;;;5007818;28;20670;-60
2022/01/05 04:00:51;;;;;;;0.80;0.80;;;2.80;99.90;;;;;;5008028;28;20168;-59
2022/01/05 04:03:18;;;;;;;0.80;0.80;;;2.80;99.90;;;;;;4985385;28;20217;-58
2022/01/05 04:05:44;;;;;;;1.07;0.90;;;2.80;99.90;;;;;;4987414;28;20562;-59
2022/01/05 04:08:10;;;;;;;1.00;1.00;;;2.80;99.90;;;;;;4991455;28;20562;-59
2022/01/05 04:10:36;;;;;;;0.70;0.70;;;2.80;99.90;;;;;;5007200;28;20963;-59
2022/01/05 04:13:02;;;;;;;0.93;0.93;;;2.80;99.90;;;;;;5008280;28;20412;-59
2022/01/05 04:15:28;;;;;;;0.90;0.90;;;2.80;99.90;;;;;;4990843;28;20204;-60
2022/01/05 04:17:53;;;;;;;1.53;1.00;;;2.80;99.90;;;;;;5003968;28;20436;-59
2022/01/05 04:20:20;;;;;;;1.60;1.50;;;2.80;99.90;;;;;;5005376;28;20472;-59
2022/01/05 04:22:46;;;;;;;0.93;0.93;;;2.80;99.90;;;;;;4991392;28;20176;-58
2022/01/05 04:25:13;;;;;;;0.87;0.87;;;2.80;99.90;;;;;;4988690;28;20444;-60
2022/01/05 04:27:38;;;;;;;0.87;0.87;;;2.80;99.90;;;;;;4989041;28;21008;-59
2022/01/05 04:30:07;;;;;;;0.70;0.70;;;2.70;99.90;;;;;;5007904;28;20488;-60
2022/01/05 04:32:34;;;;;;;2.43;1.90;;;2.70;99.90;;;;;;5007742;28;20177;-60
2022/01/05 04:35:00;;;;;;;1.17;0.93;;;2.70;99.90;;;;;;5006285;28;21005;-57
2022/01/05 04:37:26;;;;;;;0.80;0.80;;;2.60;99.90;;;;;;5008003;28;21001;-59
2022/01/05 04:39:52;;;;;;;1.07;1.07;;;2.60;99.90;;;;;;5007142;28;20465;-59
2022/01/05 04:42:18;;;;;;;0.80;0.80;;;2.60;99.90;;;;;;4989729;28;20434;-59
2022/01/05 04:44:44;;;;;;;1.00;1.00;;;2.60;99.90;;;;;;4988432;28;20451;-59
2022/01/05 04:47:11;;;;;;;1.30;0.90;;;2.60;99.90;;;;;;5003458;28;20439;-60
2022/01/05 04:49:38;;;;;;;0.80;0.80;;;2.60;99.90;;;;;;5007575;28;20423;-59
2022/01/05 04:52:04;;;;;;;0.83;0.83;;;2.60;99.90;;;;;;5005591;28;20852;-59
2022/01/05 04:54:30;;;;;;;0.80;0.80;;;2.60;99.90;;;;;;5007872;28;20439;-59
2022/01/05 04:56:55;;;;;;;0.87;0.87;;;2.50;99.90;;;;;;5008219;28;20415;-57
2022/01/05 04:59:21;;;;;;;0.77;0.77;;;2.50;99.90;;;;;;4989206;28;20320;-59
2022/01/05 05:01:46;;;;;;;0.70;0.70;;;2.60;99.90;;;;;;4986587;28;20525;-59
2022/01/05 05:04:12;;;;;;;0.70;0.70;;;2.60;99.90;;;;;;5006954;28;20210;-60
2022/01/05 05:06:38;;;;;;;0.90;0.90;;;2.60;99.90;;;;;;4987258;28;20242;-59
2022/01/05 05:09:03;;;;;;;0.70;0.70;;;2.60;99.90;;;;;;5007404;28;20176;-59
2022/01/05 05:11:29;;;;;;;0.80;0.80;;;2.60;99.90;;;;;;5005413;28;20168;-59
2022/01/05 05:13:55;;;;;;;0.80;0.80;;;2.60;99.90;;;;;;5007264;28;20231;-59
2022/01/05 05:16:20;;;;;;;0.90;0.90;;;2.60;99.90;;;;;;5006123;28;20180;-59
2022/01/05 05:18:46;;;;;;;0.73;0.73;;;2.60;99.90;;;;;;5004989;28;20196;-57
2022/01/05 05:21:12;;;;;;;0.80;0.80;;;2.60;99.90;;;;;;4988532;28;20168;-59
2022/01/05 05:23:37;;;;;;;0.80;0.80;;;2.60;99.90;;;;;;5007538;28;20287;-57
2022/01/05 05:26:03;;;;;;;0.80;0.80;;;2.60;99.90;;;;;;4987833;28;20551;-59
2022/01/05 05:28:29;;;;;;;0.90;0.90;;;2.60;99.90;;;;;;4988085;28;20203;-58
2022/01/05 05:30:54;;;;;;;0.80;0.80;;;2.60;99.90;;;;;;5006897;28;20180;-59
2022/01/05 05:33:20;;;;;;;0.90;0.90;;;2.60;99.90;;;;;;5005584;28;20262;-60
2022/01/05 05:35:46;;;;;;;0.80;0.80;;;2.60;99.90;;;;;;4987710;28;20177;-59
2022/01/05 05:38:12;;;;;;;0.90;0.90;;;2.70;99.90;;;;;;5005057;28;20180;-59
2022/01/05 05:40:38;;;;;;;0.90;0.90;;;2.70;99.90;;;;;;4987652;28;20207;-60
2022/01/05 05:43:04;;;;;;;0.80;0.80;;;2.70;99.90;;;;;;5005320;28;20478;-58
2022/01/05 05:45:30;;;;;;;0.80;0.80;;;2.70;99.90;;;;;;5005759;28;20483;-59
2022/01/05 05:47:56;;;;;;;1.00;1.00;;;2.70;99.90;;;;;;4986408;28;20184;-59
2022/01/05 05:50:22;;;;;;;0.60;0.60;;;2.80;99.90;;;;;;5004635;28;20670;-59
2022/01/05 05:52:47;;;;;;;0.90;0.90;;;2.80;99.90;;;;;;5004727;28;20262;-58
2022/01/05 05:55:13;;;;;;;0.80;0.80;;;2.80;99.90;;;;;;5004252;28;20509;-59
2022/01/05 05:57:39;;;;;;;0.90;0.90;;;2.80;99.90;;;;;;4987279;28;20180;-60
2022/01/05 06:00:06;;;;;;;0.80;0.80;;;2.90;99.90;;;;;;5004915;28;20208;-58
2022/01/05 06:02:32;;;;;;;1.30;1.20;;;2.80;99.90;;;;;;5003772;28;20713;-57
2022/01/05 06:04:58;;;;;;;0.90;0.90;;;2.80;99.90;;;;;;5005764;28;20993;-59
2022/01/05 06:07:24;;;;;;;1.23;1.13;;;2.80;99.90;;;;;;5003375;28;20431;-57
2022/01/05 06:09:49;;;;;;;0.80;0.80;;;2.80;99.90;;;;;;5006408;28;20183;-59
2022/01/05 06:12:15;;;;;;;0.90;0.90;;;2.70;99.90;;;;;;5004227;28;20180;-59
2022/01/05 06:14:41;;;;;;;1.10;1.10;;;2.70;99.90;;;;;;5002841;28;20212;-57
2022/01/05 06:17:06;;;;;;;1.20;1.10;;;2.60;99.90;;;;;;5008693;28;20184;-57
2022/01/05 06:19:32;;;;;;;1.07;1.03;;;2.60;99.90;;;;;;5003365;28;22347;-59
2022/01/05 06:21:58;;;;;;;1.43;1.33;;;2.60;99.90;;;;;;5006830;28;20524;-59
2022/01/05 06:24:25;;;;;;;1.27;1.20;;;2.60;99.90;;;;;;4993112;28;20347;-60
2022/01/05 06:26:52;;;;;;;1.00;1.00;;;2.60;99.90;;;;;;5006212;28;20435;-60
2022/01/05 06:29:19;;;;;;;0.90;0.90;;;2.60;99.90;;;;;;5004872;28;20438;-60
2022/01/05 06:31:45;;;;;;;1.03;1.03;;;2.60;99.90;;;;;;5010878;28;20952;-59
2022/01/05 06:34:11;;;;;;;1.00;1.00;;;2.60;99.90;;;;;;5007851;28;20461;-58
2022/01/05 06:36:36;;;;;;;1.27;0.90;;;2.60;99.90;;;;;;5007999;28;20554;-59
2022/01/05 06:39:03;;;;;;;1.63;1.53;;;2.60;99.90;;;;;;5011133;28;20662;-60
2022/01/05 06:41:29;;;;;;;1.87;1.20;;;2.60;99.90;;;;;;5004900;28;20184;-60
2022/01/05 06:43:54;;;;;;;0.97;0.97;;;2.60;99.90;;;;;;4997004;28;20464;-59
2022/01/05 06:46:20;;;;;;;0.83;0.83;;;2.70;99.90;;;;;;4984696;28;20279;-60
2022/01/05 06:48:45;;;;;;;0.80;0.80;;;2.60;99.90;;;;;;4996970;28;20195;-59
2022/01/05 06:51:11;;;;;;;1.80;0.90;;;2.60;99.90;;;;;;5005277;28;20330;-60
2022/01/05 06:53:37;;;;;;;1.00;1.00;;;2.60;99.90;;;;;;4998503;28;20232;-60
2022/01/05 06:56:03;;;;;;;3.53;0.90;;;2.60;99.90;;;;;;5004700;28;20580;-60
2022/01/05 06:58:29;;;;;;;0.90;0.90;;;2.50;99.90;;;;;;5008464;28;20534;-60
2022/01/05 07:00:55;;;;;;;0.80;0.80;;;2.50;99.90;;;;;;5006101;28;20502;-59
2022/01/05 07:03:21;;;;;;;1.00;1.00;;;2.50;99.90;;;;;;5008388;28;20176;-59
2022/01/05 07:05:47;;;;;;;0.90;0.90;;;2.50;99.90;;;;;;5005200;28;20458;-60
2022/01/05 07:08:13;;;;;;;1.00;1.00;;;2.40;99.90;;;;;;5001515;28;21017;-60
2022/01/05 07:10:39;;;;;;;2.60;1.20;;;2.40;99.90;;;;;;5004391;28;20611;-57
2022/01/05 07:13:05;;;;;;;1.10;1.10;;;2.40;99.90;;;;;;5009498;28;20190;-60
2022/01/05 07:15:30;;;;;;;1.27;1.27;;;2.40;99.90;;;;;;4984328;28;20204;-60
2022/01/05 07:17:56;;;;;;;1.33;1.23;;;2.30;99.90;;;;;;4999161;28;20435;-61
2022/01/05 07:20:22;;;;;;;1.13;1.13;;;2.30;99.90;;;;;;5002404;28;20222;-57
2022/01/05 07:22:47;;;;;;;1.40;1.30;;;2.40;99.90;;;;;;5005913;28;20202;-57
2022/01/05 07:25:13;;;;;;;1.00;1.00;;;2.30;99.90;;;;;;5006441;28;20298;-59
2022/01/05 07:27:39;;;;;;;1.47;1.20;;;2.30;99.90;;;;;;5002660;28;20175;-58
2022/01/05 07:30:06;;;;;;;1.53;1.43;;;2.30;99.90;;;;;;5004267;28;20438;-59
2022/01/05 07:32:32;;;;;;;1.40;1.30;;;2.30;99.90;;;;;;4980982;28;20663;-58
2022/01/05 07:34:58;;;;;;;1.57;1.47;;;2.30;99.90;;;;;;5006546;28;20456;-59
2022/01/05 07:37:24;;;;;;;1.47;1.37;;;2.30;99.90;;;;;;5009143;28;20187;-59
2022/01/05 07:39:49;;;;;;;1.47;1.47;;;2.30;99.90;;;;;;5010410;28;20199;-60
2022/01/05 07:42:15;;;;;;;1.30;1.30;;;2.20;99.90;;;;;;5012191;28;20779;-61
2022/01/05 07:44:41;;;;;;;1.83;1.73;;;2.20;99.90;;;;;;5011746;28;20187;-59
2022/01/05 07:47:10;;;;;;;1.47;1.37;;;2.20;99.90;;;;;;5012262;28;20199;-60
2022/01/05 07:49:37;;;;;;;1.10;1.10;;;2.20;99.90;;;;;;5006850;28;20270;-59
2022/01/05 07:52:04;;;;;;;1.33;1.20;;;2.10;99.90;;;;;;5006650;28;20482;-60
2022/01/05 07:54:29;;;;;;;1.17;1.10;;;2.10;99.90;;;;;;4990981;28;20494;-60
2022/01/05 07:56:55;;;;;;;1.23;1.13;;;2.10;99.90;;;;;;4992288;28;20598;-60
2022/01/05 07:59:21;;;;;;;1.10;1.10;;;2.00;99.90;;;;;;4991704;28;20219;-60
2022/01/05 08:01:46;;;;;;;1.77;1.20;;;2.00;99.90;;;;;;5010585;28;20183;-60
2022/01/05 08:04:13;;;;;;;1.00;1.00;;;2.00;99.90;;;;;;5031244;28;20217;-60
2022/01/05 08:06:39;;;;;;;1.60;1.50;;;2.10;99.90;;;;;;4996395;28;20264;-60
2022/01/05 08:09:05;;;;;;;1.20;1.20;;;2.00;99.90;;;;;;5004794;28;20511;-60
2022/01/05 08:11:30;;;;;;;1.10;1.10;;;2.00;99.90;;;;;;5002631;28;20270;-60
2022/01/05 08:13:56;;;;;;;1.97;1.47;;;2.00;99.90;;;;;;5011079;28;20207;-60
2022/01/05 08:16:21;;;;;;;1.43;1.13;;;1.90;99.90;;;;;;5009438;28;20714;-60
2022/01/05 08:18:47;;;;;;;1.70;1.10;;;1.90;99.90;;;;;;4993882;28;20290;-61
2022/01/05 08:21:13;;;;;;;2.13;1.60;;;1.90;99.90;;;;;;4992450;28;20183;-60
2022/01/05 08:23:39;;;;;;;4.10;1.67;;;1.80;99.90;;;;;;5011040;28;20180;-60
2022/01/05 08:26:05;;;;;;;2.33;1.60;;;1.80;99.90;;;;;;5002540;28;20639;-60
2022/01/05 08:28:32;;;;;;;1.20;1.20;;;1.80;99.90;;;;;;5013485;28;20672;-59
2022/01/05 08:30:58;;;;;;;1.70;1.33;;;1.70;99.90;;;;;;5009923;28;20514;-60
2022/01/05 08:33:24;;;;;;;5.13;1.40;;;1.70;99.90;;;;;;4986226;28;20426;-60
2022/01/05 08:35:50;;;;;;;1.90;1.37;;;1.70;99.90;;;;;;5009624;28;20918;-60
2022/01/05 08:38:16;;;;;;;1.60;1.50;;;1.70;99.90;;;;;;5006424;28;20177;-60
2022/01/05 08:40:42;;;;;;;2.50;2.00;;;1.70;99.90;;;;;;4995601;28;20172;-60
2022/01/05 08:43:11;;;;;;;1.50;1.40;;;1.70;99.90;;;;;;5008640;28;20515;-60
2022/01/05 08:45:37;;;;;;;6.00;1.50;;;1.70;99.90;;;;;;4992564;28;20500;-60
2022/01/05 08:48:03;;;;;;;2.30;1.80;;;1.70;99.90;;;;;;5012577;28;21483;-60
2022/01/05 08:50:31;;;;;;;2.30;1.67;;;1.70;99.90;;;;;;4991642;28;20934;-60
2022/01/05 08:52:58;;;;;;;1.50;1.40;;;1.70;99.90;;;;;;5006792;28;20426;-60
2022/01/05 08:55:27;;;;;;;2.03;1.70;;;1.80;99.90;;;;;;5009418;28;20444;-60
2022/01/05 08:57:54;;;;;;;3.70;1.60;;;1.80;99.90;;;;;;5012861;28;20429;-60
2022/01/05 09:00:19;;;;;;;2.00;1.80;;;1.70;99.90;;;;;;5015098;28;20475;-60
2022/01/05 09:02:46;;;;;;;2.30;1.70;;;1.70;99.90;;;;;;5003147;28;20932;-60
2022/01/05 09:05:11;;;;;;;2.40;1.67;;;1.70;99.90;;;;;;5010275;28;20448;-60
2022/01/05 09:07:37;;;;;;;2.97;2.10;;;1.70;99.90;;;;;;4994595;28;20412;-60
2022/01/05 09:10:04;;;;;;;2.13;1.90;;;1.60;99.90;;;;;;4992046;28;20189;-59
2022/01/05 09:12:30;;;;;;;2.47;1.90;;;1.60;99.90;;;;;;5008584;28;20258;-60
2022/01/05 09:14:56;;;;;;;2.93;1.87;;;1.50;99.90;;;;;;5009820;28;20800;-60
2022/01/05 09:17:22;;;;;;;6.33;2.30;;;1.50;99.90;;;;;;4984874;28;20481;-58
2022/01/05 09:19:47;;;;;;;2.20;1.90;;;1.50;99.90;;;;;;4997933;28;20198;-59
2022/01/05 09:22:13;;;;;;;4.73;1.77;;;1.50;99.90;;;;;;4996558;28;20197;-60
2022/01/05 09:24:40;;;;;;;2.53;1.83;;;1.60;99.90;;;;;;5009094;28;20707;-60
2022/01/05 09:27:06;;;;;;;6.00;1.90;;;1.60;99.90;;;;;;4992061;28;20528;-60
2022/01/05 09:29:33;;;;;;;2.83;1.83;;;1.60;99.90;;;;;;5021566;28;20452;-60
2022/01/05 09:32:04;;;;;;;3.40;2.30;;;1.60;99.90;;;;;;5008494;28;21009;-60
2022/01/05 09:34:30;;;;;;;1.83;1.63;;;1.50;99.90;;;;;;5002506;28;20554;-60
2022/01/05 09:37:01;;;;;;;8.43;3.60;;;1.50;99.90;;;;;;4990653;28;20435;-60
2022/01/05 09:42:10;;;;;;;5.17;1.90;;;1.50;99.90;;;;;;5009644;28;20485;-60
2022/01/05 09:44:42;;;;;;;2.43;2.20;;;1.50;99.90;;;;;;5009265;28;20979;-60
2022/01/05 09:47:50;;;;;;;3.63;2.30;;;1.50;99.90;;;;;;4987264;28;20198;-60
2022/01/05 09:50:18;;;;;;;5.80;2.73;;;1.40;99.90;;;;;;4982263;28;20425;-60
2022/01/05 09:52:45;;;;;;;5.67;2.00;;;1.40;99.90;;;;;;4996263;28;20427;-60
2022/01/05 09:55:13;;;;;;;2.60;1.90;;;1.30;99.90;;;;;;5032694;28;20436;-60
2022/01/05 09:57:42;;;;;;;2.40;2.20;;;1.30;99.90;;;;;;5004853;28;20733;-60
2022/01/05 10:00:10;;;;;;;2.27;2.07;;;1.30;99.90;;;;;;5012660;28;20472;-60
2022/01/05 10:02:35;;;;;;;4.13;2.13;;;1.20;99.90;;;;;;5022116;28;20425;-60
2022/01/05 10:05:02;;;;;;;2.70;1.87;;;1.30;99.90;;;;;;5016527;28;20450;-60
2022/01/05 10:07:28;;;;;;;3.57;2.33;;;1.30;99.90;;;;;;4999920;28;20257;-60
2022/01/05 10:09:53;;;;;;;3.10;1.87;;;1.30;99.90;;;;;;4998714;28;20526;-61
2022/01/05 10:12:21;;;;;;;4.03;2.60;;;1.40;99.90;;;;;;5011776;28;20179;-60
2022/01/05 10:14:48;;;;;;;5.00;2.40;;;1.40;99.90;;;;;;5035243;23;20225;-59
2022/01/05 10:17:32;;;;;;;4.10;2.10;;;1.40;99.90;;;;;;4992812;28;20488;-56
2022/01/05 10:20:05;;;;;;;3.83;2.63;;;1.50;99.90;;;;;;5012222;28;20435;-57
2022/01/05 10:22:40;;;;;;;3.77;2.60;;;1.50;99.90;;;;;;5012800;28;20612;-57
2022/01/05 10:25:21;;;;;;;3.00;2.40;;;1.50;99.90;;;;;;5022724;28;20753;-58
2022/01/05 10:28:03;;;;;;;3.63;2.53;;;1.40;99.90;;;;;;5011926;28;20511;-60
2022/01/05 10:30:41;;;;;;;5.20;2.70;;;1.40;98.40;;;;;;5012188;28;20417;-55
2022/01/05 10:33:08;;;;;;;2.90;2.47;;;1.40;99.90;;;;;;5010907;28;20413;-57
2022/01/05 10:35:34;;;;;;;2.73;2.50;;;1.40;99.90;;;;;;5006253;28;20530;-59
2022/01/05 10:38:03;;;;;;;3.70;2.73;;;1.40;98.80;;;;;;5018040;28;20417;-59
2022/01/05 10:40:32;;;;;;;3.80;2.53;;;1.40;98.50;;;;;;5013566;28;20449;-58
2022/01/05 10:42:58;;;;;;;3.57;2.33;;;1.40;98.60;;;;;;5008039;28;20993;-59
2022/01/05 10:45:37;;;;;;;4.97;2.77;;;1.50;98.80;;;;;;5007361;28;20450;-56
2022/01/05 10:48:14;;;;;;;5.00;2.80;;;1.50;99.90;;;;;;4994708;28;20183;-57
2022/01/05 10:50:41;;;;;;;3.53;2.40;;;1.60;99.90;;;;;;5010875;28;20422;-57
2022/01/05 10:53:08;;;;;;;4.07;2.50;;;1.80;98.40;;;;;;5009602;28;20417;-58
2022/01/05 10:55:40;;;;;;;3.97;2.43;;;1.80;92.80;;;;;;5011426;28;20437;-55
2022/01/05 10:58:10;;;;;;;3.23;2.07;;;1.90;94.60;;;;;;5027918;28;20413;-56
2022/01/05 11:00:53;;;;;;;5.77;2.20;;;2.10;92.90;;;;;;5005291;28;20501;-59
2022/01/05 11:03:26;;;;;;;4.20;2.80;;;2.30;84.60;;;;;;5009572;28;20437;-60
2022/01/05 11:06:11;;;;;;;6.20;2.23;;;2.30;79.30;;;;;;5010751;28;20523;-59
2022/01/05 11:08:56;;;;;;;5.27;2.30;;;2.50;73.80;;;;;;5010027;28;20429;-56
2022/01/05 11:11:45;;;;;;;3.53;2.17;;;2.50;78.50;;;;;;5007540;28;20494;-58
2022/01/05 11:14:11;;;;;;;3.60;2.60;;;2.40;80.50;;;;;;5010872;28;20442;-58
2022/01/05 11:16:40;;;;;;;4.80;2.30;;;2.30;80.90;;;;;;5003062;28;20453;-55
2022/01/05 11:19:19;;;;;;;5.20;2.50;;;2.30;75.40;;;;;;5001872;28;20465;-59
2022/01/05 11:22:00;;;;;;;2.70;2.10;;;2.40;76.50;;;;;;5010462;28;20782;-55
2022/01/05 11:24:27;;;;;;;5.10;2.37;;;2.60;76.00;;;;;;5010762;28;20922;-57
2022/01/05 11:26:53;;;;;;;3.30;2.27;;;2.70;80.20;;;;;;5004510;28;20429;-56
2022/01/05 11:29:21;;;;;;;9.27;2.37;;;2.90;72.20;;;;;;5020449;28;20799;-57
2022/01/05 11:31:47;;;;;;;2.33;1.93;;;2.90;69.70;;;;;;5010834;28;20423;-59
2022/01/05 11:34:13;;;;;;;6.60;2.33;;;2.80;69.30;;;;;;4995776;28;20435;-55
2022/01/05 11:36:40;;;;;;;3.63;2.00;;;2.50;67.00;;;;;;5010335;28;20186;-58
2022/01/05 11:39:06;;;;;;;5.10;2.30;;;2.30;73.70;;;;;;5015959;28;20457;-57
2022/01/05 11:41:35;;;;;;;6.20;2.27;;;2.10;76.40;;;;;;5009850;28;20414;-56
2022/01/05 11:44:04;;;;;;;6.63;2.37;;;2.00;81.60;;;;;;4998114;28;20624;-57
2022/01/05 11:46:30;;;;;;;3.33;2.20;;;2.00;76.80;;;;;;5007056;28;20416;-57
2022/01/05 11:49:07;;;;;;;5.77;2.10;;;1.90;70.50;;;;;;5010125;28;20432;-56
2022/01/05 11:51:42;;;;;;;5.87;2.70;;;1.80;74.10;;;;;;4992106;28;20179;-58
2022/01/05 11:54:12;;;;;;;2.50;2.30;;;1.80;72.50;;;;;;5004203;28;20453;-56
2022/01/05 11:56:44;;;;;;;4.20;2.10;;;1.70;72.50;;;;;;5009450;28;20426;-58
2022/01/05 11:59:33;;;;;;;3.53;2.07;;;1.60;79.50;;;;;;5010116;28;20479;-62
2022/01/05 12:02:03;;;;;;;7.40;2.43;;;1.60;83.20;;;;;;5006948;28;20531;-58
2022/01/05 12:04:30;;;;;;;4.87;2.60;;;1.60;89.00;;;;;;5009959;28;20468;-59
2022/01/05 12:07:02;;;;;;;4.77;2.20;;;1.60;87.00;;;;;;5005350;28;20481;-60
2022/01/05 12:09:33;;;;;;;2.10;1.90;;;1.50;83.20;;;;;;5008167;28;20432;-62
2022/01/05 12:12:20;;;;;;;2.97;2.17;;;1.50;87.00;;;;;;4990190;28;20433;-58
2022/01/05 12:14:46;;;;;;;4.30;2.37;;;1.60;88.20;;;;;;4998712;28;20561;-61
2022/01/05 12:17:14;;;;;;;5.03;1.97;;;1.50;82.80;;;;;;5010602;28;20430;-61
2022/01/05 12:19:48;;;;;;;5.17;2.00;;;1.50;77.80;;;;;;4996779;28;20449;-62
2022/01/05 12:22:27;;;;;;;4.10;2.50;;;1.50;80.00;;;;;;5007306;28;20841;-56
2022/01/05 12:24:52;;;;;;;4.17;1.87;;;1.40;81.70;;;;;;5005224;28;20442;-59
2022/01/05 12:27:27;;;;;;;5.57;2.00;;;1.40;83.90;;;;;;5006105;28;20561;-57
2022/01/05 12:29:54;;;;;;;4.00;2.20;;;1.40;85.90;;;;;;5003989;28;20568;-58
2022/01/05 12:32:32;;;;;;;5.67;1.93;;;1.40;85.50;;;;;;5009161;28;20432;-56
2022/01/05 12:34:58;;;;;;;7.70;2.23;;;1.60;82.80;;;;;;5015603;28;20448;-58
2022/01/05 12:37:43;;;;;;;4.83;2.50;;;1.60;83.80;;;;;;4989743;28;20517;-56
2022/01/05 12:40:22;;;;;;;3.47;1.80;;;1.70;76.20;;;;;;5002579;28;20456;-58
2022/01/05 12:42:48;;;;;;;2.50;1.70;;;1.70;79.50;;;;;;5011474;28;20414;-55
2022/01/05 12:45:52;;;;;;;8.73;2.27;;;1.70;79.80;;;;;;5007059;28;20634;-60
2022/01/05 12:48:32;;;;;;;4.10;2.00;;;1.60;79.30;;;;;;4988976;28;20460;-62
2022/01/05 12:51:22;;;;;;;2.37;1.90;;;1.70;82.00;;;;;;5005559;28;20562;-58
2022/01/05 12:54:09;;;;;;;9.10;2.00;;;1.70;79.10;;;;;;5007062;28;20428;-57
2022/01/05 12:56:41;;;;;;;9.80;2.20;;;1.80;79.60;;;;;;5009570;28;20412;-57
2022/01/05 12:59:16;;;;;;;5.90;2.17;;;1.80;76.70;;;;;;5007387;28;20453;-57
2022/01/05 13:01:43;;;;;;;7.10;2.60;;;1.80;77.10;;;;;;5006211;28;20424;-57
2022/01/05 13:04:10;;;;;;;4.90;2.10;;;1.80;79.50;;;;;;5007094;28;20480;-58
2022/01/05 13:06:37;;;;;;;4.60;1.70;;;1.80;77.70;;;;;;5008525;28;20405;-59